createdAt,value
2022-10-29T00:00:19.052Z,0.00
2022-10-29T00:01:19.125Z,0.00
2022-10-29T00:02:19.116Z,0.00
2022-10-29T00:03:19.204Z,0.00
2022-10-29T00:04:19.061Z,0.00
2022-10-29T00:05:19.105Z,0.00
2022-10-29T00:06:19.106Z,0.00
2022-10-29T00:07:19.115Z,0.00
2022-10-29T00:08:19.196Z,0.00
2022-10-29T00:09:19.066Z,0.00
2022-10-29T00:10:19.689Z,0.00
2022-10-29T00:14:25.158Z,0.00
2022-10-29T00:15:25.671Z,0.00
2022-10-29T00:16:25.281Z,0.00
2022-10-29T00:17:25.057Z,0.00
2022-10-29T00:18:25.078Z,0.00
2022-10-29T00:19:25.976Z,0.00
2022-10-29T00:20:25.900Z,0.00
2022-10-29T00:21:25.094Z,0.00
2022-10-29T00:22:25.503Z,0.00
2022-10-29T00:23:36.939Z,0.00
2022-10-29T00:24:25.366Z,0.00
2022-10-29T00:25:25.953Z,0.00
2022-10-29T00:26:25.960Z,0.00
2022-10-29T00:27:42.379Z,0.00
2022-10-29T00:28:25.988Z,0.00
2022-10-29T00:31:09.048Z,0.00
2022-10-29T00:32:21.806Z,0.00
2022-10-29T00:33:09.071Z,0.00
2022-10-29T00:34:08.946Z,0.00
2022-10-29T00:35:08.958Z,0.00
2022-10-29T00:36:09.688Z,0.00
2022-10-29T00:37:09.727Z,0.00
2022-10-29T00:38:09.767Z,0.00
2022-10-29T00:41:46.011Z,0.00
2022-10-29T00:45:00.393Z,0.00
2022-10-29T00:46:00.382Z,0.00
2022-10-29T00:47:00.369Z,0.00
2022-10-29T00:48:01.216Z,0.00
2022-10-29T00:49:01.213Z,0.00
2022-10-29T00:50:01.269Z,0.00
2022-10-29T00:51:01.305Z,0.00
2022-10-29T00:52:01.073Z,0.00
2022-10-29T00:53:01.268Z,0.00
2022-10-29T00:54:01.186Z,0.00
2022-10-29T00:55:01.063Z,0.00
2022-10-29T00:56:01.051Z,0.00
2022-10-29T00:57:01.219Z,0.00
2022-10-29T00:58:01.096Z,0.00
2022-10-29T00:59:01.233Z,0.00
2022-10-29T01:00:00.455Z,0.00
2022-10-29T01:01:01.299Z,0.00
2022-10-29T01:02:01.448Z,0.00
2022-10-29T01:03:01.085Z,0.00
2022-10-29T01:04:01.006Z,0.00
2022-10-29T01:05:00.363Z,0.00
2022-10-29T01:06:00.373Z,0.00
2022-10-29T01:07:00.354Z,0.00
2022-10-29T01:08:00.367Z,0.00
2022-10-29T01:09:00.351Z,0.00
2022-10-29T01:10:00.367Z,0.00
2022-10-29T01:11:00.352Z,0.00
2022-10-29T01:12:00.349Z,0.00
2022-10-29T01:13:00.384Z,0.00
2022-10-29T01:14:00.357Z,0.00
2022-10-29T01:15:00.364Z,0.00
2022-10-29T01:16:00.358Z,0.00
2022-10-29T01:17:00.360Z,0.00
2022-10-29T01:18:00.378Z,0.00
2022-10-29T01:19:00.477Z,0.00
2022-10-29T01:20:00.386Z,0.00
2022-10-29T01:21:00.385Z,0.00
2022-10-29T01:22:00.381Z,0.00
2022-10-29T01:23:00.393Z,0.00
2022-10-29T01:24:00.406Z,0.00
2022-10-29T01:25:00.388Z,0.00
2022-10-29T01:26:00.392Z,0.00
2022-10-29T01:27:00.396Z,0.00
2022-10-29T01:28:00.397Z,0.00
2022-10-29T01:29:00.391Z,0.00
2022-10-29T01:30:00.405Z,0.00
2022-10-29T01:31:00.389Z,0.00
2022-10-29T01:32:00.427Z,0.00
2022-10-29T01:33:00.386Z,0.00
2022-10-29T01:34:00.382Z,0.00
2022-10-29T01:35:00.406Z,0.00
2022-10-29T01:36:00.390Z,0.00
2022-10-29T01:37:00.392Z,0.00
2022-10-29T01:38:00.410Z,0.00
2022-10-29T01:39:00.401Z,0.00
2022-10-29T01:40:00.427Z,0.00
2022-10-29T01:41:00.411Z,0.00
2022-10-29T01:42:00.412Z,0.00
2022-10-29T01:43:07.999Z,0.00
2022-10-29T01:44:00.417Z,0.00
2022-10-29T01:45:00.396Z,0.00
2022-10-29T01:46:00.401Z,0.00
2022-10-29T01:47:00.416Z,0.00
2022-10-29T01:48:00.393Z,0.00
2022-10-29T01:49:00.408Z,0.00
2022-10-29T01:50:00.411Z,0.00
2022-10-29T01:51:00.424Z,0.00
2022-10-29T01:52:00.416Z,0.00
2022-10-29T01:53:00.422Z,0.00
2022-10-29T01:54:00.421Z,0.00
2022-10-29T01:55:00.417Z,0.00
2022-10-29T01:56:00.420Z,0.00
2022-10-29T01:57:00.413Z,0.00
2022-10-29T01:58:00.412Z,0.00
2022-10-29T01:59:00.452Z,0.00
2022-10-29T02:00:00.412Z,0.00
2022-10-29T02:01:00.591Z,0.00
2022-10-29T02:02:00.460Z,0.00
2022-10-29T02:03:00.914Z,0.00
2022-10-29T02:04:00.431Z,0.00
2022-10-29T02:05:00.431Z,0.00
2022-10-29T02:06:00.424Z,0.00
2022-10-29T02:07:00.442Z,0.00
2022-10-29T02:08:00.425Z,0.00
2022-10-29T02:09:00.441Z,0.00
2022-10-29T02:10:00.434Z,0.00
2022-10-29T02:11:00.444Z,0.00
2022-10-29T02:12:00.453Z,0.00
2022-10-29T02:13:00.439Z,0.00
2022-10-29T02:14:00.429Z,0.00
2022-10-29T02:15:00.447Z,0.00
2022-10-29T02:16:00.450Z,0.00
2022-10-29T02:17:00.469Z,0.00
2022-10-29T02:18:00.455Z,0.00
2022-10-29T02:19:00.442Z,0.00
2022-10-29T02:20:00.444Z,0.00
2022-10-29T02:21:00.471Z,0.00
2022-10-29T02:22:00.454Z,0.00
2022-10-29T02:23:00.452Z,0.00
2022-10-29T02:24:00.447Z,0.00
2022-10-29T02:25:00.521Z,0.00
2022-10-29T02:26:00.452Z,0.00
2022-10-29T02:27:00.469Z,0.00
2022-10-29T02:28:00.482Z,0.00
2022-10-29T02:29:00.459Z,0.00
2022-10-29T02:30:00.469Z,0.00
2022-10-29T02:31:00.469Z,0.00
2022-10-29T02:32:00.493Z,0.00
2022-10-29T02:33:00.534Z,0.00
2022-10-29T02:34:00.469Z,0.00
2022-10-29T02:35:00.464Z,0.00
2022-10-29T02:40:36.634Z,0.00
2022-10-29T02:41:36.625Z,0.00
2022-10-29T02:42:36.621Z,0.00
2022-10-29T02:43:36.642Z,0.00
2022-10-29T02:44:36.641Z,0.00
2022-10-29T02:45:36.622Z,0.00
2022-10-29T02:48:16.390Z,0.00
2022-10-29T02:49:08.208Z,0.00
2022-10-29T02:50:08.220Z,0.00
2022-10-29T02:51:08.214Z,0.00
2022-10-29T02:52:08.226Z,0.00
2022-10-29T02:53:08.242Z,0.00
2022-10-29T02:54:08.229Z,0.00
2022-10-29T02:55:08.213Z,0.00
2022-10-29T02:56:08.230Z,0.00
2022-10-29T02:57:08.238Z,0.00
2022-10-29T02:58:08.262Z,0.00
2022-10-29T02:59:10.858Z,0.00
2022-10-29T03:00:08.251Z,0.00
2022-10-29T03:01:08.236Z,0.00
2022-10-29T03:02:08.428Z,0.00
2022-10-29T03:03:08.257Z,0.00
2022-10-29T03:04:08.243Z,0.00
2022-10-29T03:05:08.227Z,0.00
2022-10-29T03:06:08.242Z,0.00
2022-10-29T03:07:08.273Z,0.00
2022-10-29T03:08:08.240Z,0.00
2022-10-29T03:09:08.256Z,0.00
2022-10-29T03:10:08.233Z,0.00
2022-10-29T03:11:08.245Z,0.00
2022-10-29T03:12:08.268Z,0.00
2022-10-29T03:13:08.249Z,0.00
2022-10-29T03:14:08.249Z,0.00
2022-10-29T03:15:08.266Z,0.00
2022-10-29T03:16:08.257Z,0.00
2022-10-29T03:17:08.256Z,0.00
2022-10-29T03:18:08.246Z,0.00
2022-10-29T03:19:08.258Z,0.00
2022-10-29T03:20:08.267Z,0.00
2022-10-29T03:21:08.251Z,0.00
2022-10-29T03:22:08.255Z,0.00
2022-10-29T03:23:08.259Z,0.00
2022-10-29T03:24:08.256Z,0.00
2022-10-29T03:25:08.288Z,0.00
2022-10-29T03:26:08.248Z,0.00
2022-10-29T03:27:08.266Z,0.00
2022-10-29T03:28:08.265Z,0.00
2022-10-29T03:29:08.271Z,0.00
2022-10-29T03:30:08.269Z,0.00
2022-10-29T03:31:08.284Z,0.00
2022-10-29T03:32:08.270Z,0.00
2022-10-29T03:33:08.260Z,0.00
2022-10-29T03:34:08.275Z,0.00
2022-10-29T03:35:08.271Z,0.00
2022-10-29T03:36:08.393Z,0.00
2022-10-29T03:37:08.295Z,0.00
2022-10-29T03:38:08.275Z,0.00
2022-10-29T03:39:08.297Z,0.00
2022-10-29T03:40:08.273Z,0.00
2022-10-29T03:41:08.298Z,0.00
2022-10-29T03:42:08.298Z,0.00
2022-10-29T03:43:08.268Z,0.00
2022-10-29T03:44:08.276Z,0.00
2022-10-29T03:45:08.272Z,0.00
2022-10-29T03:46:08.283Z,0.00
2022-10-29T03:47:08.290Z,0.00
2022-10-29T03:48:08.306Z,0.00
2022-10-29T03:49:08.288Z,0.00
2022-10-29T03:50:08.278Z,0.00
2022-10-29T03:51:08.298Z,0.00
2022-10-29T03:52:08.293Z,0.00
2022-10-29T03:53:08.296Z,0.00
2022-10-29T03:54:08.308Z,0.00
2022-10-29T03:55:08.288Z,0.00
2022-10-29T03:56:08.283Z,0.00
2022-10-29T03:57:08.312Z,0.00
2022-10-29T03:58:08.300Z,0.00
2022-10-29T03:59:08.299Z,0.00
2022-10-29T04:00:08.302Z,0.00
2022-10-29T04:01:08.289Z,0.00
2022-10-29T04:02:08.433Z,0.00
2022-10-29T04:03:08.359Z,0.00
2022-10-29T04:04:08.322Z,0.00
2022-10-29T04:05:08.308Z,0.00
2022-10-29T04:06:08.300Z,0.00
2022-10-29T04:07:08.301Z,0.00
2022-10-29T04:08:08.299Z,0.00
2022-10-29T04:09:08.312Z,0.00
2022-10-29T04:10:08.313Z,0.00
2022-10-29T04:11:08.318Z,0.00
2022-10-29T04:12:08.301Z,0.00
2022-10-29T04:13:08.321Z,0.00
2022-10-29T04:14:08.313Z,0.00
2022-10-29T04:15:08.319Z,0.00
2022-10-29T04:16:08.354Z,0.00
2022-10-29T04:17:08.350Z,0.00
2022-10-29T04:18:08.323Z,0.00
2022-10-29T04:19:08.316Z,0.00
2022-10-29T04:20:19.083Z,0.00
2022-10-29T04:24:48.651Z,0.00
2022-10-29T04:28:17.944Z,0.00
2022-10-29T04:29:08.342Z,0.00
2022-10-29T04:30:08.367Z,0.00
2022-10-29T04:31:08.340Z,0.00
2022-10-29T04:32:08.344Z,0.00
2022-10-29T04:33:08.338Z,0.00
2022-10-29T04:34:08.324Z,0.00
2022-10-29T04:35:08.344Z,0.00
2022-10-29T04:36:08.343Z,0.00
2022-10-29T04:37:08.343Z,0.00
2022-10-29T04:38:08.350Z,0.00
2022-10-29T04:39:08.330Z,0.00
2022-10-29T04:40:08.334Z,0.00
2022-10-29T04:41:08.342Z,0.00
2022-10-29T04:42:08.345Z,0.00
2022-10-29T04:43:08.383Z,0.00
2022-10-29T04:44:08.350Z,0.00
2022-10-29T04:45:08.356Z,0.00
2022-10-29T04:46:08.341Z,0.00
2022-10-29T04:47:08.339Z,0.00
2022-10-29T04:48:08.342Z,0.00
2022-10-29T04:49:08.415Z,0.00
2022-10-29T04:50:08.353Z,0.00
2022-10-29T04:51:08.344Z,0.00
2022-10-29T04:52:08.351Z,0.00
2022-10-29T04:53:08.356Z,0.00
2022-10-29T04:54:08.342Z,0.00
2022-10-29T04:55:08.375Z,0.00
2022-10-29T04:56:08.365Z,0.00
2022-10-29T04:57:08.348Z,0.00
2022-10-29T04:58:08.352Z,0.00
2022-10-29T04:59:08.350Z,0.00
2022-10-29T05:00:08.370Z,0.00
2022-10-29T05:01:08.611Z,0.00
2022-10-29T05:02:08.353Z,0.00
2022-10-29T05:03:08.353Z,0.00
2022-10-29T05:04:08.357Z,0.00
2022-10-29T05:05:08.367Z,0.00
2022-10-29T05:06:08.368Z,0.00
2022-10-29T05:07:08.398Z,0.00
2022-10-29T05:08:08.376Z,0.00
2022-10-29T05:09:08.374Z,0.00
2022-10-29T05:10:08.370Z,0.00
2022-10-29T05:11:08.381Z,0.00
2022-10-29T05:12:08.370Z,0.00
2022-10-29T05:13:08.377Z,0.00
2022-10-29T05:14:08.362Z,0.00
2022-10-29T05:15:08.367Z,0.00
2022-10-29T05:16:08.369Z,0.00
2022-10-29T05:17:08.390Z,0.00
2022-10-29T05:18:08.383Z,0.00
2022-10-29T05:19:08.378Z,0.00
2022-10-29T05:20:08.383Z,0.00
2022-10-29T05:21:08.376Z,0.00
2022-10-29T05:22:08.383Z,0.00
2022-10-29T05:23:08.376Z,0.00
2022-10-29T05:24:08.397Z,0.00
2022-10-29T05:25:08.380Z,0.00
2022-10-29T05:26:08.394Z,0.00
2022-10-29T05:27:08.378Z,0.00
2022-10-29T05:28:08.379Z,0.00
2022-10-29T05:29:08.425Z,0.00
2022-10-29T05:30:08.382Z,0.00
2022-10-29T05:31:08.379Z,0.00
2022-10-29T05:32:08.398Z,0.00
2022-10-29T05:33:08.383Z,0.00
2022-10-29T05:34:08.392Z,0.00
2022-10-29T05:35:08.413Z,0.00
2022-10-29T05:36:08.391Z,0.00
2022-10-29T05:37:08.408Z,0.00
2022-10-29T05:38:08.398Z,4.00
2022-10-29T05:39:08.402Z,4.00
2022-10-29T05:40:08.420Z,0.00
2022-10-29T05:41:08.403Z,0.00
2022-10-29T05:42:08.403Z,4.00
2022-10-29T05:43:08.418Z,4.00
2022-10-29T05:44:08.421Z,4.00
2022-10-29T05:45:08.394Z,4.00
2022-10-29T05:46:08.421Z,4.00
2022-10-29T05:47:08.403Z,8.00
2022-10-29T05:48:08.435Z,4.00
2022-10-29T05:49:08.411Z,8.00
2022-10-29T05:50:08.417Z,8.00
2022-10-29T05:51:08.422Z,8.00
2022-10-29T05:52:08.404Z,8.00
2022-10-29T05:53:08.428Z,12.00
2022-10-29T05:54:08.413Z,12.00
2022-10-29T05:55:08.406Z,12.00
2022-10-29T05:56:08.441Z,12.00
2022-10-29T05:57:08.418Z,12.00
2022-10-29T05:58:08.416Z,16.00
2022-10-29T05:59:08.420Z,16.00
2022-10-29T06:00:08.427Z,20.00
2022-10-29T06:01:08.416Z,24.00
2022-10-29T06:02:08.566Z,24.00
2022-10-29T06:03:08.486Z,28.00
2022-10-29T06:04:08.425Z,28.00
2022-10-29T06:05:08.434Z,36.00
2022-10-29T06:06:08.515Z,36.00
2022-10-29T06:07:08.429Z,44.00
2022-10-29T06:08:08.430Z,44.00
2022-10-29T06:09:08.429Z,48.00
2022-10-29T06:10:08.419Z,56.00
2022-10-29T06:11:08.426Z,64.00
2022-10-29T06:12:08.441Z,64.00
2022-10-29T06:13:08.426Z,72.00
2022-10-29T06:14:08.427Z,80.00
2022-10-29T06:15:08.429Z,84.00
2022-10-29T06:16:08.429Z,92.00
2022-10-29T06:17:08.427Z,96.00
2022-10-29T06:18:08.449Z,104.00
2022-10-29T06:19:08.436Z,112.00
2022-10-29T06:20:08.443Z,116.00
2022-10-29T06:21:08.431Z,124.00
2022-10-29T06:22:08.450Z,132.00
2022-10-29T06:23:08.432Z,140.00
2022-10-29T06:24:08.451Z,152.00
2022-10-29T06:25:08.443Z,160.00
2022-10-29T06:26:08.439Z,172.00
2022-10-29T06:27:08.435Z,192.00
2022-10-29T06:28:08.442Z,216.00
2022-10-29T06:29:08.462Z,240.00
2022-10-29T06:30:08.448Z,264.00
2022-10-29T06:31:08.440Z,288.00
2022-10-29T06:32:08.450Z,296.00
2022-10-29T06:33:08.446Z,272.00
2022-10-29T06:34:08.454Z,248.00
2022-10-29T06:35:08.451Z,256.00
2022-10-29T06:36:08.447Z,264.00
2022-10-29T06:37:08.451Z,284.00
2022-10-29T06:38:11.989Z,300.00
2022-10-29T06:39:08.474Z,332.00
2022-10-29T06:40:08.456Z,392.00
2022-10-29T06:41:08.457Z,428.00
2022-10-29T06:42:08.449Z,444.00
2022-10-29T06:43:08.458Z,464.00
2022-10-29T06:44:08.462Z,492.00
2022-10-29T06:45:08.463Z,504.00
2022-10-29T06:46:08.451Z,512.00
2022-10-29T06:47:08.458Z,500.00
2022-10-29T06:48:08.471Z,488.00
2022-10-29T06:49:08.473Z,532.00
2022-10-29T06:50:08.464Z,616.00
2022-10-29T06:51:08.527Z,648.00
2022-10-29T06:52:08.487Z,660.00
2022-10-29T06:53:08.473Z,676.00
2022-10-29T06:54:08.466Z,684.00
2022-10-29T06:55:08.466Z,692.00
2022-10-29T06:56:08.468Z,668.00
2022-10-29T06:57:08.467Z,676.00
2022-10-29T06:58:08.493Z,724.00
2022-10-29T06:59:08.495Z,736.00
2022-10-29T07:00:08.894Z,700.00
2022-10-29T07:01:08.478Z,712.00
2022-10-29T07:02:08.519Z,784.00
2022-10-29T07:03:08.493Z,816.00
2022-10-29T07:04:08.530Z,828.00
2022-10-29T07:05:08.480Z,840.00
2022-10-29T07:06:08.485Z,824.00
2022-10-29T07:07:08.469Z,812.00
2022-10-29T07:08:08.484Z,840.00
2022-10-29T07:09:08.492Z,848.00
2022-10-29T07:10:08.477Z,840.00
2022-10-29T07:11:08.492Z,828.00
2022-10-29T07:12:08.481Z,800.00
2022-10-29T07:13:08.489Z,772.00
2022-10-29T07:14:08.498Z,784.00
2022-10-29T07:15:08.522Z,808.00
2022-10-29T07:16:08.506Z,844.00
2022-10-29T07:17:08.508Z,900.00
2022-10-29T07:18:08.490Z,944.00
2022-10-29T07:19:08.485Z,1020.00
2022-10-29T07:20:08.502Z,1080.00
2022-10-29T07:21:08.495Z,1156.00
2022-10-29T07:22:08.506Z,1212.00
2022-10-29T07:23:08.526Z,1308.00
2022-10-29T07:24:08.510Z,1300.00
2022-10-29T07:25:08.499Z,1336.00
2022-10-29T07:26:08.509Z,1368.00
2022-10-29T07:27:08.601Z,1408.00
2022-10-29T07:28:08.548Z,1396.00
2022-10-29T07:29:08.533Z,1472.00
2022-10-29T07:30:08.520Z,1540.00
2022-10-29T07:31:08.520Z,1508.00
2022-10-29T07:32:08.512Z,1420.00
2022-10-29T07:33:08.528Z,1332.00
2022-10-29T07:34:08.522Z,1284.00
2022-10-29T07:35:08.514Z,1460.00
2022-10-29T07:36:08.520Z,1588.00
2022-10-29T07:37:08.519Z,1568.00
2022-10-29T07:38:10.805Z,1472.00
2022-10-29T07:39:08.543Z,1304.00
2022-10-29T07:40:08.539Z,1256.00
2022-10-29T07:41:08.543Z,1300.00
2022-10-29T07:42:08.528Z,1328.00
2022-10-29T07:43:08.531Z,1336.00
2022-10-29T07:44:08.574Z,1292.00
2022-10-29T07:45:08.531Z,1392.00
2022-10-29T07:46:08.549Z,1488.00
2022-10-29T07:47:08.540Z,1460.00
2022-10-29T07:48:08.538Z,1432.00
2022-10-29T07:49:08.581Z,1372.00
2022-10-29T07:50:08.572Z,1492.00
2022-10-29T07:51:08.549Z,1480.00
2022-10-29T07:52:08.548Z,1488.00
2022-10-29T07:53:08.559Z,1572.00
2022-10-29T07:54:13.646Z,1664.00
2022-10-29T07:55:08.578Z,1548.00
2022-10-29T07:56:08.571Z,1608.00
2022-10-29T07:57:08.570Z,1796.00
2022-10-29T07:58:08.563Z,1924.00
2022-10-29T07:59:08.571Z,2112.00
2022-10-29T08:00:08.566Z,2232.00
2022-10-29T08:01:08.659Z,2344.00
2022-10-29T08:02:08.597Z,2176.00
2022-10-29T08:03:08.583Z,2124.00
2022-10-29T08:04:08.591Z,2096.00
2022-10-29T08:05:08.591Z,2528.00
2022-10-29T08:06:08.574Z,2632.00
2022-10-29T08:07:08.688Z,2688.00
2022-10-29T08:08:08.606Z,2468.00
2022-10-29T08:09:08.602Z,2424.00
2022-10-29T08:10:08.595Z,2540.00
2022-10-29T08:11:08.601Z,2524.00
2022-10-29T08:12:08.627Z,2288.00
2022-10-29T08:13:08.599Z,2356.00
2022-10-29T08:14:08.598Z,2012.00
2022-10-29T08:15:08.598Z,1652.00
2022-10-29T08:16:08.631Z,1620.00
2022-10-29T08:17:08.637Z,1356.00
2022-10-29T08:18:08.627Z,1264.00
2022-10-29T08:19:08.631Z,1320.00
2022-10-29T08:20:08.626Z,1288.00
2022-10-29T08:21:08.628Z,1384.00
2022-10-29T08:22:08.639Z,1408.00
2022-10-29T08:23:08.651Z,1416.00
2022-10-29T08:24:08.649Z,1496.00
2022-10-29T08:25:08.627Z,1684.00
2022-10-29T08:26:08.645Z,2012.00
2022-10-29T08:27:08.648Z,2372.00
2022-10-29T08:28:08.662Z,2184.00
2022-10-29T08:29:08.677Z,2732.00
2022-10-29T08:30:08.649Z,2564.00
2022-10-29T08:31:08.660Z,2712.00
2022-10-29T08:32:08.662Z,3016.00
2022-10-29T08:33:08.666Z,3624.00
2022-10-29T08:34:11.206Z,3664.00
2022-10-29T08:35:08.692Z,3168.00
2022-10-29T08:36:08.677Z,2924.00
2022-10-29T08:37:08.663Z,3232.00
2022-10-29T08:38:08.680Z,2760.00
2022-10-29T08:39:08.674Z,2868.00
2022-10-29T08:40:08.680Z,2772.00
2022-10-29T08:41:08.721Z,3436.00
2022-10-29T08:42:08.674Z,2444.00
2022-10-29T08:43:08.685Z,2132.00
2022-10-29T08:44:08.686Z,2008.00
2022-10-29T08:45:08.698Z,1968.00
2022-10-29T08:46:08.708Z,2188.00
2022-10-29T08:47:08.736Z,2280.00
2022-10-29T08:48:08.725Z,1956.00
2022-10-29T08:49:08.723Z,1868.00
2022-10-29T08:50:08.712Z,1984.00
2022-10-29T08:51:08.721Z,2036.00
2022-10-29T08:52:08.751Z,2128.00
2022-10-29T08:53:22.786Z,2044.00
2022-10-29T08:54:29.721Z,1976.00
2022-10-29T08:55:08.727Z,1916.00
2022-10-29T08:56:08.739Z,1876.00
2022-10-29T08:57:08.767Z,1948.00
2022-10-29T08:58:08.757Z,2040.00
2022-10-29T08:59:08.760Z,2100.00
2022-10-29T09:01:08.796Z,1876.00
2022-10-29T09:02:08.794Z,1824.00
2022-10-29T09:03:08.778Z,1836.00
2022-10-29T09:04:08.768Z,1820.00
2022-10-29T09:05:08.797Z,1856.00
2022-10-29T09:06:08.772Z,1904.00
2022-10-29T09:07:08.774Z,1852.00
2022-10-29T09:08:08.790Z,1892.00
2022-10-29T09:09:08.794Z,1944.00
2022-10-29T09:10:08.785Z,1948.00
2022-10-29T09:11:08.795Z,1924.00
2022-10-29T09:12:08.788Z,1920.00
2022-10-29T09:13:08.799Z,1880.00
2022-10-29T09:14:08.807Z,1904.00
2022-10-29T09:15:08.821Z,1924.00
2022-10-29T09:16:08.823Z,2024.00
2022-10-29T09:17:11.517Z,2240.00
2022-10-29T09:18:08.820Z,2352.00
2022-10-29T09:19:08.808Z,2620.00
2022-10-29T09:20:08.829Z,3228.00
2022-10-29T09:21:08.830Z,3916.00
2022-10-29T09:22:08.817Z,5400.00
2022-10-29T09:23:08.841Z,6212.00
2022-10-29T09:24:08.871Z,5184.00
2022-10-29T09:25:08.847Z,5364.00
2022-10-29T09:26:08.852Z,5764.00
2022-10-29T09:27:10.602Z,4540.00
2022-10-29T09:28:08.853Z,3900.00
2022-10-29T09:29:08.845Z,3636.00
2022-10-29T09:30:08.860Z,4128.00
2022-10-29T09:31:08.906Z,3976.00
2022-10-29T09:32:08.860Z,4508.00
2022-10-29T09:33:08.872Z,3872.00
2022-10-29T09:34:08.888Z,3288.00
2022-10-29T09:35:08.882Z,2788.00
2022-10-29T09:36:08.884Z,2388.00
2022-10-29T09:37:08.887Z,2356.00
2022-10-29T09:38:08.904Z,2208.00
2022-10-29T09:39:08.882Z,1696.00
2022-10-29T09:40:08.899Z,1556.00
2022-10-29T09:41:08.922Z,1600.00
2022-10-29T09:42:08.903Z,1868.00
2022-10-29T09:43:08.904Z,2112.00
2022-10-29T09:44:08.926Z,2152.00
2022-10-29T09:45:08.921Z,1732.00
2022-10-29T09:46:08.938Z,1376.00
2022-10-29T09:47:10.010Z,1196.00
2022-10-29T09:48:08.929Z,1080.00
2022-10-29T09:49:08.950Z,1036.00
2022-10-29T09:50:09.214Z,1004.00
2022-10-29T09:51:08.933Z,976.00
2022-10-29T09:52:08.933Z,956.00
2022-10-29T09:53:08.933Z,932.00
2022-10-29T09:54:08.963Z,932.00
2022-10-29T09:55:08.958Z,940.00
2022-10-29T09:56:08.959Z,968.00
2022-10-29T09:57:08.957Z,976.00
2022-10-29T09:58:08.972Z,960.00
2022-10-29T09:59:08.962Z,952.00
2022-10-29T10:00:08.992Z,900.00
2022-10-29T10:01:08.977Z,860.00
2022-10-29T10:02:09.140Z,824.00
2022-10-29T10:03:09.095Z,804.00
2022-10-29T10:04:08.978Z,844.00
2022-10-29T10:05:08.993Z,872.00
2022-10-29T10:06:08.999Z,904.00
2022-10-29T10:07:08.996Z,936.00
2022-10-29T10:08:09.011Z,936.00
2022-10-29T10:09:08.994Z,1056.00
2022-10-29T10:10:09.037Z,1036.00
2022-10-29T10:11:09.026Z,1028.00
2022-10-29T10:12:09.004Z,1076.00
2022-10-29T10:13:14.172Z,1584.00
2022-10-29T10:14:09.024Z,2088.00
2022-10-29T10:15:09.027Z,2012.00
2022-10-29T10:16:09.036Z,2220.00
2022-10-29T10:17:09.045Z,3028.00
2022-10-29T10:18:09.026Z,2988.00
2022-10-29T10:19:09.056Z,3044.00
2022-10-29T10:20:09.031Z,5068.00
2022-10-29T10:21:09.060Z,3768.00
2022-10-29T10:22:10.280Z,5652.00
2022-10-29T10:23:09.038Z,5980.00
2022-10-29T10:24:09.056Z,4916.00
2022-10-29T10:25:09.071Z,5288.00
2022-10-29T10:26:09.057Z,4708.00
2022-10-29T10:27:09.067Z,5632.00
2022-10-29T10:28:09.092Z,4648.00
2022-10-29T10:29:09.084Z,8580.00
2022-10-29T10:30:09.072Z,7280.00
2022-10-29T10:31:09.094Z,4348.00
2022-10-29T10:32:09.069Z,2728.00
2022-10-29T10:33:09.132Z,2556.00
2022-10-29T10:34:09.106Z,2412.00
2022-10-29T10:35:09.098Z,1988.00
2022-10-29T10:36:09.089Z,1912.00
2022-10-29T10:37:09.094Z,2008.00
2022-10-29T10:38:09.112Z,2228.00
2022-10-29T10:39:09.103Z,2292.00
2022-10-29T10:40:09.123Z,2416.00
2022-10-29T10:41:09.119Z,2268.00
2022-10-29T10:42:09.122Z,2000.00
2022-10-29T10:43:09.194Z,2364.00
2022-10-29T10:44:09.129Z,2336.00
2022-10-29T10:45:09.145Z,2268.00
2022-10-29T10:46:09.130Z,2324.00
2022-10-29T10:47:09.145Z,2592.00
2022-10-29T10:48:09.300Z,3300.00
2022-10-29T10:49:09.151Z,5132.00
2022-10-29T10:50:09.172Z,8316.00
2022-10-29T10:51:09.171Z,10356.00
2022-10-29T10:52:09.167Z,10776.00
2022-10-29T10:53:09.164Z,10316.00
2022-10-29T10:54:09.181Z,12044.00
2022-10-29T10:55:09.195Z,12464.00
2022-10-29T10:56:09.198Z,13112.00
2022-10-29T10:57:09.200Z,13824.00
2022-10-29T10:58:09.183Z,12420.00
2022-10-29T10:59:09.187Z,12264.00
2022-10-29T11:00:09.206Z,13952.00
2022-10-29T11:01:09.273Z,12112.00
2022-10-29T11:02:09.263Z,10840.00
2022-10-29T11:03:09.257Z,11516.00
2022-10-29T11:04:09.221Z,12712.00
2022-10-29T11:05:09.218Z,11628.00
2022-10-29T11:06:09.226Z,11768.00
2022-10-29T11:07:09.250Z,10568.00
2022-10-29T11:08:09.249Z,10376.00
2022-10-29T11:09:09.237Z,9596.00
2022-10-29T11:10:09.243Z,8068.00
2022-10-29T11:11:09.257Z,6224.00
2022-10-29T11:12:09.273Z,7440.00
2022-10-29T11:13:09.297Z,7004.00
2022-10-29T11:14:09.273Z,7064.00
2022-10-29T11:15:09.280Z,6580.00
2022-10-29T11:16:09.288Z,5588.00
2022-10-29T11:17:09.308Z,4688.00
2022-10-29T11:18:09.326Z,3472.00
2022-10-29T11:19:09.294Z,3232.00
2022-10-29T11:20:09.324Z,3096.00
2022-10-29T11:21:09.306Z,2228.00
2022-10-29T11:22:09.331Z,1792.00
2022-10-29T11:23:09.337Z,1624.00
2022-10-29T11:24:09.327Z,1616.00
2022-10-29T11:25:09.338Z,1832.00
2022-10-29T11:26:09.339Z,1832.00
2022-10-29T11:27:09.336Z,1680.00
2022-10-29T11:28:09.362Z,1712.00
2022-10-29T11:29:09.367Z,1928.00
2022-10-29T11:30:09.360Z,2072.00
2022-10-29T11:31:09.369Z,2244.00
2022-10-29T11:32:09.368Z,2480.00
2022-10-29T11:33:09.427Z,2720.00
2022-10-29T11:34:09.415Z,2740.00
2022-10-29T11:35:09.408Z,2672.00
2022-10-29T11:36:09.398Z,2492.00
2022-10-29T11:37:09.415Z,2468.00
2022-10-29T11:38:09.410Z,2144.00
2022-10-29T11:39:09.402Z,2184.00
2022-10-29T11:40:09.430Z,2444.00
2022-10-29T11:41:09.452Z,2432.00
2022-10-29T11:42:09.429Z,2412.00
2022-10-29T11:43:09.446Z,2476.00
2022-10-29T11:44:09.444Z,2552.00
2022-10-29T11:45:09.441Z,2148.00
2022-10-29T11:46:09.449Z,2172.00
2022-10-29T11:47:09.466Z,2048.00
2022-10-29T11:48:09.513Z,1952.00
2022-10-29T11:49:09.466Z,2040.00
2022-10-29T11:50:09.459Z,2140.00
2022-10-29T11:51:09.492Z,2012.00
2022-10-29T11:52:09.475Z,1988.00
2022-10-29T11:53:09.501Z,1884.00
2022-10-29T11:54:09.495Z,1852.00
2022-10-29T11:55:09.506Z,1840.00
2022-10-29T11:56:09.486Z,1860.00
2022-10-29T11:57:09.493Z,1720.00
2022-10-29T11:58:09.507Z,1772.00
2022-10-29T11:59:09.518Z,1680.00
2022-10-29T12:00:09.527Z,1440.00
2022-10-29T12:01:09.529Z,1316.00
2022-10-29T12:02:09.530Z,1280.00
2022-10-29T12:03:09.546Z,1372.00
2022-10-29T12:05:09.545Z,1516.00
2022-10-29T12:06:09.547Z,1448.00
2022-10-29T12:07:09.557Z,1348.00
2022-10-29T12:08:09.562Z,1384.00
2022-10-29T12:09:09.573Z,1468.00
2022-10-29T12:10:09.595Z,1372.00
2022-10-29T12:11:09.573Z,1324.00
2022-10-29T12:12:09.586Z,1420.00
2022-10-29T12:13:09.583Z,1488.00
2022-10-29T12:14:09.592Z,1452.00
2022-10-29T12:15:09.597Z,1444.00
2022-10-29T12:16:09.609Z,1428.00
2022-10-29T12:17:09.615Z,1440.00
2022-10-29T12:18:09.654Z,1644.00
2022-10-29T12:19:09.613Z,1744.00
2022-10-29T12:20:09.631Z,1912.00
2022-10-29T12:21:09.656Z,1980.00
2022-10-29T12:22:09.617Z,1912.00
2022-10-29T12:23:14.470Z,1864.00
2022-10-29T12:24:09.635Z,1808.00
2022-10-29T12:25:09.628Z,1764.00
2022-10-29T12:26:09.655Z,1684.00
2022-10-29T12:27:09.637Z,1612.00
2022-10-29T12:28:09.648Z,1568.00
2022-10-29T12:29:09.651Z,1488.00
2022-10-29T12:30:09.659Z,1440.00
2022-10-29T12:31:09.682Z,1356.00
2022-10-29T12:32:09.687Z,1332.00
2022-10-29T12:33:09.670Z,1356.00
2022-10-29T12:34:09.691Z,1324.00
2022-10-29T12:35:09.683Z,1332.00
2022-10-29T12:36:09.719Z,1360.00
2022-10-29T12:37:09.685Z,1432.00
2022-10-29T12:38:09.706Z,1456.00
2022-10-29T12:39:09.703Z,1436.00
2022-10-29T12:40:09.822Z,1444.00
2022-10-29T12:41:09.707Z,1440.00
2022-10-29T12:42:09.721Z,1324.00
2022-10-29T12:43:09.736Z,1240.00
2022-10-29T12:44:09.749Z,1176.00
2022-10-29T12:45:09.731Z,1080.00
2022-10-29T12:46:25.039Z,1140.00
2022-10-29T12:47:09.727Z,1180.00
2022-10-29T12:48:09.761Z,1108.00
2022-10-29T12:49:09.758Z,1124.00
2022-10-29T12:50:09.816Z,1144.00
2022-10-29T12:51:09.752Z,1136.00
2022-10-29T12:52:09.769Z,1028.00
2022-10-29T12:53:09.765Z,860.00
2022-10-29T12:54:09.796Z,960.00
2022-10-29T12:55:09.763Z,924.00
2022-10-29T12:56:09.783Z,772.00
2022-10-29T12:57:09.794Z,904.00
2022-10-29T12:58:09.789Z,856.00
2022-10-29T12:59:09.807Z,840.00
2022-10-29T13:00:09.863Z,800.00
2022-10-29T13:01:09.880Z,780.00
2022-10-29T13:02:12.206Z,820.00
2022-10-29T13:03:09.907Z,804.00